createdAt,value
2023-03-17T00:39:32.889Z,27.39
2023-03-17T00:41:32.941Z,26.71
2023-03-17T00:42:32.934Z,28.14
2023-03-17T00:43:32.932Z,26.68
2023-03-17T00:44:32.934Z,25.04
2023-03-17T00:45:32.969Z,27.17
2023-03-17T00:46:32.980Z,27.03
2023-03-17T00:47:32.981Z,27.06
2023-03-17T00:48:32.979Z,25.22
2023-03-17T00:49:32.980Z,28.15
2023-03-17T00:50:32.993Z,27.65
2023-03-17T00:51:32.977Z,27.00
2023-03-17T00:52:33.029Z,27.57
2023-03-17T00:53:33.020Z,26.77
2023-03-17T00:54:33.012Z,28.57
2023-03-17T00:55:33.013Z,27.57
2023-03-17T00:56:33.025Z,25.95
2023-03-17T00:57:33.046Z,27.32
2023-03-17T00:59:33.056Z,27.14
2023-03-17T01:00:33.276Z,27.28
2023-03-17T01:01:33.061Z,26.58
2023-03-17T01:02:33.078Z,28.01
2023-03-17T01:03:33.129Z,25.70
2023-03-17T01:04:33.074Z,27.48
2023-03-17T01:05:33.081Z,27.89
2023-03-17T01:06:33.089Z,28.33
2023-03-17T01:07:33.090Z,26.43
2023-03-17T01:08:33.095Z,26.76
2023-03-17T01:09:33.093Z,26.38
2023-03-17T01:10:33.097Z,29.17
2023-03-17T01:11:33.093Z,26.41
2023-03-17T01:12:33.121Z,26.62
2023-03-17T01:13:33.113Z,28.53
2023-03-17T01:14:33.115Z,25.41
2023-03-17T01:15:33.118Z,29.09
2023-03-17T01:16:33.143Z,25.00
2023-03-17T01:17:33.158Z,28.00
2023-03-17T01:18:33.207Z,27.46
2023-03-17T01:19:33.145Z,25.25
2023-03-17T01:20:33.158Z,29.39
2023-03-17T01:21:33.143Z,27.83
2023-03-17T01:22:33.162Z,28.81
2023-03-17T01:23:33.165Z,27.02
2023-03-17T01:24:33.169Z,25.53
2023-03-17T01:25:33.164Z,26.78
2023-03-17T01:26:33.175Z,29.04
2023-03-17T01:27:33.155Z,29.04
2023-03-17T01:28:33.177Z,25.44
2023-03-17T01:29:33.179Z,27.41
2023-03-17T01:30:33.190Z,28.92
2023-03-17T01:31:33.238Z,25.88
2023-03-17T01:32:33.187Z,25.68
2023-03-17T01:33:33.194Z,26.34
2023-03-17T01:34:33.195Z,28.19
2023-03-17T01:35:33.227Z,27.51
2023-03-17T01:36:33.213Z,25.55
2023-03-17T01:37:33.217Z,27.28
2023-03-17T01:38:33.329Z,26.13
2023-03-17T01:39:33.224Z,27.50
2023-03-17T01:40:33.245Z,27.62
2023-03-17T01:41:33.210Z,27.25
2023-03-17T01:42:33.208Z,26.34
2023-03-17T01:43:33.205Z,30.69
2023-03-17T01:44:33.209Z,29.20
2023-03-17T01:45:33.297Z,27.83
2023-03-17T01:46:33.208Z,27.13
2023-03-17T01:47:33.207Z,26.85
2023-03-17T01:48:33.218Z,27.07
2023-03-17T01:49:33.227Z,25.96
2023-03-17T01:50:33.225Z,26.03
2023-03-17T01:51:33.234Z,27.86
2023-03-17T01:52:33.217Z,26.95
2023-03-17T01:53:33.214Z,29.48
2023-03-17T01:54:33.206Z,27.74
2023-03-17T01:55:33.213Z,26.85
2023-03-17T01:56:33.213Z,27.15
2023-03-17T01:57:33.219Z,27.66
2023-03-17T01:58:33.219Z,27.70
2023-03-17T01:59:33.250Z,26.58
2023-03-17T02:00:33.206Z,27.85
2023-03-17T02:01:33.208Z,27.34
2023-03-17T02:02:33.208Z,25.52
2023-03-17T02:03:33.620Z,28.67
2023-03-17T02:04:33.235Z,28.32
2023-03-17T02:05:33.234Z,27.08
2023-03-17T02:06:33.215Z,28.39
2023-03-17T02:07:33.239Z,25.94
2023-03-17T02:08:33.246Z,27.66
2023-03-17T02:09:33.231Z,25.81
2023-03-17T02:10:33.292Z,25.93
2023-03-17T02:11:33.242Z,25.00
2023-03-17T02:12:33.254Z,27.26
2023-03-17T02:13:33.261Z,25.07
2023-03-17T02:14:33.255Z,26.97
2023-03-17T02:15:33.295Z,27.26
2023-03-17T02:16:33.288Z,25.18
2023-03-17T02:17:33.282Z,26.81
2023-03-17T02:18:33.286Z,26.80
2023-03-17T02:19:33.294Z,26.25
2023-03-17T02:20:33.292Z,27.99
2023-03-17T02:21:33.297Z,25.23
2023-03-17T02:22:33.321Z,27.70
2023-03-17T02:23:33.328Z,26.37
2023-03-17T02:24:33.305Z,28.53
2023-03-17T02:25:33.307Z,27.89
2023-03-17T02:26:33.325Z,27.05
2023-03-17T02:27:33.336Z,28.02
2023-03-17T02:28:33.370Z,27.88
2023-03-17T02:29:33.351Z,26.69
2023-03-17T02:30:33.520Z,25.68
2023-03-17T02:31:33.352Z,26.14
2023-03-17T02:32:33.383Z,26.42
2023-03-17T02:33:33.399Z,27.22
2023-03-17T02:34:33.380Z,26.22
2023-03-17T02:35:33.422Z,26.42
2023-03-17T02:36:33.438Z,26.87
2023-03-17T02:37:33.418Z,26.03
2023-03-17T02:38:33.406Z,26.94
2023-03-17T02:39:33.426Z,27.15
2023-03-17T02:40:33.427Z,27.46
2023-03-17T02:41:33.439Z,27.27
2023-03-17T02:42:33.453Z,26.80
2023-03-17T02:43:33.462Z,29.31
2023-03-17T02:44:33.455Z,26.45
2023-03-17T02:45:33.472Z,27.05
2023-03-17T02:46:33.535Z,26.98
2023-03-17T02:47:33.487Z,25.13
2023-03-17T02:48:33.476Z,25.67
2023-03-17T02:49:33.492Z,25.64
2023-03-17T02:50:33.513Z,26.96
2023-03-17T02:51:33.500Z,28.60
2023-03-17T02:52:33.505Z,27.10
2023-03-17T02:53:33.517Z,28.26
2023-03-17T02:54:33.532Z,28.73
2023-03-17T02:55:33.534Z,26.18
2023-03-17T02:56:33.529Z,27.49
2023-03-17T02:57:33.532Z,25.09
2023-03-17T02:58:33.537Z,27.94
2023-03-17T02:59:33.544Z,27.84
2023-03-17T03:00:33.541Z,26.21
2023-03-17T03:01:33.614Z,28.27
2023-03-17T03:02:33.659Z,26.85
2023-03-17T03:03:33.565Z,25.42
2023-03-17T03:04:33.579Z,26.25
2023-03-17T03:05:33.589Z,29.12
2023-03-17T03:06:33.596Z,25.69
2023-03-17T03:07:33.588Z,26.75
2023-03-17T03:08:33.608Z,26.58
2023-03-17T03:09:33.623Z,26.57
2023-03-17T03:10:33.595Z,27.91
2023-03-17T03:11:33.609Z,27.13
2023-03-17T03:12:33.634Z,26.78
2023-03-17T03:13:33.626Z,27.31
2023-03-17T03:14:33.636Z,27.67
2023-03-17T03:15:33.711Z,26.27
2023-03-17T03:16:33.643Z,26.36
2023-03-17T03:17:33.659Z,29.50
2023-03-17T03:18:33.679Z,26.72
2023-03-17T03:19:33.678Z,26.03
2023-03-17T03:20:33.679Z,26.65
2023-03-17T03:21:33.679Z,27.74
2023-03-17T03:22:33.716Z,27.24
2023-03-17T03:23:33.699Z,29.19
2023-03-17T03:24:33.697Z,29.32
2023-03-17T03:25:33.708Z,27.57
2023-03-17T03:26:33.746Z,26.15
2023-03-17T03:27:33.729Z,26.00
2023-03-17T03:28:33.720Z,31.95
2023-03-17T03:29:33.738Z,26.72
2023-03-17T03:30:33.730Z,26.53
2023-03-17T03:31:33.754Z,27.41
2023-03-17T03:32:33.794Z,29.83
2023-03-17T03:33:33.757Z,27.82
2023-03-17T03:34:33.773Z,27.75
2023-03-17T03:35:33.782Z,25.79
2023-03-17T03:36:33.752Z,28.35
2023-03-17T03:37:33.755Z,27.37
2023-03-17T03:38:33.758Z,27.45
2023-03-17T03:40:33.760Z,25.12
2023-03-17T03:41:33.783Z,29.72
2023-03-17T03:42:33.772Z,27.92
2023-03-17T07:09:35.067Z,250.00
2023-03-17T07:10:35.087Z,249.90
2023-03-17T07:11:35.061Z,249.86
2023-03-17T07:12:35.126Z,250.00
2023-03-17T07:13:35.085Z,209.97
2023-03-17T07:14:35.101Z,118.61
2023-03-17T07:15:35.231Z,43.66
2023-03-17T07:16:35.798Z,0.00
2023-03-17T07:17:35.206Z,0.00
2023-03-17T07:18:35.230Z,0.00
2023-03-17T07:19:35.348Z,0.00
2023-03-17T07:20:35.417Z,0.00
2023-03-17T07:21:35.392Z,0.00
2023-03-17T07:22:35.469Z,0.00
2023-03-17T07:23:35.525Z,0.00
2023-03-17T07:24:35.603Z,0.00
2023-03-17T07:25:35.665Z,0.00
2023-03-17T07:26:35.788Z,0.00
2023-03-17T07:27:35.741Z,0.00
2023-03-17T07:28:35.829Z,0.00
2023-03-17T07:29:35.887Z,0.00
2023-03-17T07:30:36.100Z,9.04
2023-03-17T07:31:36.619Z,27.09
2023-03-17T07:32:36.070Z,41.01
2023-03-17T07:33:36.294Z,52.65
2023-03-17T07:34:36.045Z,55.09
2023-03-17T07:35:36.139Z,63.97
2023-03-17T07:36:36.127Z,67.36
2023-03-17T07:37:36.310Z,76.88
2023-03-17T07:38:36.295Z,81.53
2023-03-17T07:39:36.448Z,89.25
2023-03-17T07:40:36.291Z,96.39
2023-03-17T07:41:36.387Z,103.51
2023-03-17T07:42:36.353Z,104.92
2023-03-17T07:43:36.411Z,113.28
2023-03-17T07:44:36.399Z,113.36
2023-03-17T07:45:36.368Z,123.20
2023-03-17T07:46:36.467Z,130.49
2023-03-17T07:47:36.415Z,140.03
2023-03-17T07:48:36.349Z,159.62
2023-03-17T07:49:41.671Z,166.70
2023-03-17T07:50:37.408Z,162.86
2023-03-17T07:51:36.413Z,167.24
2023-03-17T07:52:36.543Z,167.36
2023-03-17T07:53:37.309Z,158.26
2023-03-17T07:54:36.481Z,135.17
2023-03-17T07:55:36.800Z,135.16
2023-03-17T07:56:36.494Z,137.98
2023-03-17T07:57:36.635Z,137.16
2023-03-17T07:58:36.567Z,140.95
2023-03-17T07:59:36.566Z,138.61
2023-03-17T08:00:36.756Z,150.84
2023-03-17T08:01:36.669Z,168.24
2023-03-17T08:02:36.865Z,163.63
2023-03-17T08:03:38.108Z,162.63
2023-03-17T08:04:36.860Z,173.53
2023-03-17T08:05:36.871Z,171.23
2023-03-17T08:06:36.913Z,170.73
2023-03-17T08:07:36.883Z,170.91
2023-03-17T08:08:36.916Z,170.30
2023-03-17T08:09:38.806Z,185.95
2023-03-17T08:10:36.962Z,179.78
2023-03-17T08:11:36.964Z,178.28
2023-03-17T08:12:37.035Z,172.85
2023-03-17T08:13:36.977Z,179.57
2023-03-17T08:14:37.034Z,175.68
2023-03-17T08:15:37.009Z,171.75
2023-03-17T08:16:37.085Z,167.82
2023-03-17T08:17:37.106Z,167.44
2023-03-17T08:18:37.168Z,160.97
2023-03-17T08:19:37.268Z,164.21
2023-03-17T08:20:37.358Z,165.93
2023-03-17T08:21:37.423Z,164.25
2023-03-17T08:22:37.456Z,164.92
2023-03-17T08:23:37.592Z,165.13
2023-03-17T08:24:37.613Z,169.84
2023-03-17T08:25:37.713Z,169.88
2023-03-17T08:26:37.842Z,180.07
2023-03-17T08:27:37.845Z,176.14
2023-03-17T08:28:37.907Z,177.74
2023-03-17T08:29:38.033Z,182.02
2023-03-17T08:30:38.404Z,175.15
2023-03-17T08:31:38.126Z,181.00
2023-03-17T08:32:38.151Z,180.07
2023-03-17T08:33:38.130Z,194.83
2023-03-17T08:34:38.137Z,202.95
2023-03-17T08:35:38.150Z,211.26
2023-03-17T08:36:38.308Z,211.09
2023-03-17T08:37:38.303Z,211.11
2023-03-17T08:38:38.265Z,217.45
2023-03-17T08:39:38.341Z,225.34
2023-03-17T08:40:38.411Z,224.39
2023-03-17T08:41:38.548Z,226.56
2023-03-17T08:42:38.571Z,222.11
2023-03-17T08:43:38.622Z,218.89
2023-03-17T08:44:38.620Z,218.38
2023-03-17T08:45:38.628Z,213.68
2023-03-17T08:46:39.306Z,191.39
2023-03-17T08:47:38.731Z,202.00
2023-03-17T08:48:38.673Z,201.19
2023-03-17T08:49:38.700Z,205.94
2023-03-17T08:50:38.741Z,202.34
2023-03-17T08:51:38.696Z,191.70
2023-03-17T08:52:38.705Z,177.86
2023-03-17T08:53:38.736Z,183.23
2023-03-17T08:54:38.735Z,188.17
2023-03-17T08:55:38.746Z,193.30
2023-03-17T08:56:38.775Z,159.05
2023-03-17T08:57:38.779Z,165.11
2023-03-17T08:58:38.778Z,159.43
2023-03-17T08:59:38.929Z,161.24
2023-03-17T09:00:38.806Z,170.23
2023-03-17T09:01:38.971Z,183.69
2023-03-17T09:02:38.879Z,186.89
2023-03-17T09:03:38.863Z,191.00
2023-03-17T09:04:40.088Z,176.43
2023-03-17T09:05:38.846Z,161.12
2023-03-17T09:06:42.306Z,149.36
2023-03-17T09:07:39.996Z,149.86
2023-03-17T09:08:38.969Z,150.46
2023-03-17T09:09:38.870Z,145.54
2023-03-17T09:10:39.048Z,137.27
2023-03-17T09:11:38.876Z,127.64
2023-03-17T09:12:38.941Z,143.59
2023-03-17T09:13:38.910Z,96.08
2023-03-17T09:14:43.890Z,79.77
2023-03-17T09:15:40.215Z,56.03
2023-03-17T09:16:38.987Z,65.71
2023-03-17T09:17:39.023Z,69.95
2023-03-17T09:18:39.082Z,81.09
2023-03-17T09:19:39.067Z,103.98
2023-03-17T09:20:39.067Z,112.27
2023-03-17T09:21:39.234Z,133.38
2023-03-17T09:22:39.100Z,114.81
2023-03-17T09:23:39.134Z,124.99
2023-03-17T09:24:39.163Z,142.12
2023-03-17T09:25:39.169Z,140.04
2023-03-17T09:26:39.202Z,156.61
2023-03-17T09:27:39.172Z,165.74
2023-03-17T09:28:39.212Z,172.46
2023-03-17T09:29:39.210Z,172.28
2023-03-17T09:30:39.237Z,153.63
2023-03-17T09:31:39.342Z,156.40
2023-03-17T09:32:39.301Z,174.79
2023-03-17T09:33:39.264Z,183.61
2023-03-17T09:34:39.290Z,165.84
2023-03-17T09:35:39.295Z,178.55
2023-03-17T09:36:39.292Z,180.39
2023-03-17T09:37:39.288Z,188.25
2023-03-17T09:38:39.815Z,183.75
2023-03-17T09:39:39.290Z,152.58
2023-03-17T09:40:39.297Z,140.54
2023-03-17T09:41:39.333Z,131.85
2023-03-17T09:42:39.335Z,117.48
2023-03-17T09:43:39.343Z,118.43
2023-03-17T09:44:39.399Z,127.72
2023-03-17T09:45:41.660Z,108.78
2023-03-17T09:46:39.428Z,104.86
2023-03-17T09:47:41.582Z,111.66
2023-03-17T09:48:39.395Z,110.17
2023-03-17T09:49:39.445Z,117.23
2023-03-17T09:50:39.411Z,131.41
2023-03-17T09:51:39.411Z,152.82
2023-03-17T09:52:39.420Z,143.62
2023-03-17T09:53:39.463Z,145.71
2023-03-17T09:54:39.450Z,137.70
2023-03-17T09:55:40.227Z,150.68
2023-03-17T09:56:39.476Z,157.60
2023-03-17T09:57:40.428Z,161.55
2023-03-17T09:58:39.514Z,171.89
2023-03-17T09:59:39.518Z,132.88
2023-03-17T10:00:39.531Z,154.70
2023-03-17T10:01:39.604Z,156.20
2023-03-17T10:02:39.532Z,152.33
2023-03-17T10:03:39.536Z,168.36
2023-03-17T10:04:40.347Z,180.10
2023-03-17T10:05:39.607Z,190.04
2023-03-17T10:06:39.543Z,188.52
2023-03-17T10:07:39.603Z,188.17
2023-03-17T10:08:39.560Z,194.94
2023-03-17T10:09:39.561Z,199.95
2023-03-17T10:10:39.553Z,202.30
2023-03-17T10:11:39.567Z,206.68
2023-03-17T10:12:39.654Z,185.96
2023-03-17T10:13:40.322Z,197.68
2023-03-17T10:14:39.548Z,194.65
2023-03-17T10:15:39.595Z,161.95
2023-03-17T10:16:39.606Z,161.60
2023-03-17T10:17:39.610Z,141.65
2023-03-17T10:18:39.623Z,148.91
2023-03-17T10:19:39.616Z,152.84
2023-03-17T10:20:39.620Z,150.43
2023-03-17T10:21:39.608Z,152.16
2023-03-17T10:22:39.649Z,104.79
2023-03-17T10:23:39.626Z,117.59
2023-03-17T10:25:39.667Z,154.77
2023-03-17T10:26:39.629Z,155.26
2023-03-17T10:27:39.690Z,158.66
2023-03-17T10:28:39.635Z,166.75
2023-03-17T10:29:39.625Z,179.58
2023-03-17T10:30:40.330Z,197.63
2023-03-17T10:31:40.337Z,207.78
2023-03-17T10:32:39.668Z,207.97
2023-03-17T10:33:39.616Z,209.35
2023-03-17T10:34:39.627Z,211.21
2023-03-17T10:35:39.755Z,212.07
2023-03-17T10:36:39.687Z,217.58
2023-03-17T10:37:40.556Z,221.49
2023-03-17T10:38:39.602Z,223.76
2023-03-17T10:39:39.587Z,226.00
2023-03-17T10:40:39.578Z,234.03
2023-03-17T10:41:39.609Z,233.12
2023-03-17T10:42:39.593Z,229.76
2023-03-17T10:43:39.566Z,234.37
2023-03-17T10:44:39.617Z,237.03
2023-03-17T10:45:42.167Z,242.88
2023-03-17T10:46:39.628Z,243.00
2023-03-17T10:47:39.561Z,244.11
2023-03-17T10:48:39.548Z,246.93
2023-03-17T10:49:39.564Z,253.98
2023-03-17T10:50:39.566Z,264.46
2023-03-17T10:51:39.592Z,258.19
2023-03-17T10:52:39.582Z,251.67
2023-03-17T10:53:39.568Z,251.81
2023-03-17T10:54:39.534Z,252.76
2023-03-17T10:55:39.497Z,255.71
2023-03-17T10:56:39.535Z,260.69
2023-03-17T10:57:39.501Z,264.87
2023-03-17T10:58:39.509Z,257.86
2023-03-17T10:59:42.102Z,251.31
2023-03-17T11:00:39.527Z,251.47
2023-03-17T11:01:39.484Z,252.75
2023-03-17T11:02:39.492Z,254.98
2023-03-17T11:03:39.520Z,259.61
2023-03-17T11:04:40.343Z,268.58
2023-03-17T11:05:40.117Z,263.20
2023-03-17T11:06:39.453Z,257.12
2023-03-17T11:07:39.498Z,250.73
2023-03-17T11:08:39.463Z,250.00
2023-03-17T11:09:40.456Z,250.00
2023-03-17T11:10:39.409Z,249.41
2023-03-17T11:11:39.394Z,249.52
2023-03-17T11:12:39.432Z,249.66
2023-03-17T11:13:39.501Z,250.07
2023-03-17T11:14:39.489Z,251.38
2023-03-17T11:15:39.379Z,249.86
2023-03-17T11:16:39.395Z,251.12
2023-03-17T11:17:39.372Z,252.94
2023-03-17T11:18:39.334Z,255.13
2023-03-17T11:19:39.298Z,257.97
2023-03-17T11:20:39.309Z,250.10
2023-03-17T11:21:39.340Z,249.59
2023-03-17T11:22:39.251Z,250.00
2023-03-17T11:23:39.275Z,250.00
2023-03-17T11:24:39.359Z,249.89
2023-03-17T11:25:39.261Z,240.32
2023-03-17T11:26:39.276Z,245.88
2023-03-17T11:27:39.255Z,249.37
2023-03-17T11:28:39.243Z,249.18
2023-03-17T11:29:39.226Z,250.00
2023-03-17T11:30:39.228Z,249.85
2023-03-17T11:31:39.380Z,249.37
2023-03-17T11:32:39.242Z,248.71
2023-03-17T11:33:39.202Z,245.93
2023-03-17T11:34:39.227Z,244.47
2023-03-17T11:35:39.216Z,242.83
2023-03-17T11:36:39.155Z,241.54
2023-03-17T11:37:39.169Z,235.84
2023-03-17T11:38:39.340Z,209.78
2023-03-17T11:39:39.164Z,206.04
2023-03-17T11:40:39.131Z,205.95
2023-03-17T11:41:39.097Z,198.24
2023-03-17T11:42:39.106Z,201.97
2023-03-17T11:43:39.131Z,203.98
2023-03-17T11:44:39.109Z,203.88
2023-03-17T11:45:39.121Z,203.95
2023-03-17T11:46:39.068Z,204.29
2023-03-17T11:47:39.111Z,205.40
2023-03-17T11:48:39.072Z,208.51
2023-03-17T11:49:39.077Z,212.29
2023-03-17T11:50:39.049Z,213.50
2023-03-17T11:51:39.012Z,214.22
2023-03-17T11:52:39.041Z,214.22
2023-03-17T11:53:39.423Z,215.58
2023-03-17T11:54:38.989Z,213.73
2023-03-17T11:55:38.979Z,216.94
2023-03-17T11:56:38.911Z,216.06
2023-03-17T11:57:38.926Z,216.71
2023-03-17T11:58:38.906Z,215.70
2023-03-17T11:59:38.916Z,213.63
2023-03-17T12:00:38.881Z,213.71
2023-03-17T12:01:38.873Z,213.98
2023-03-17T12:02:38.819Z,214.95
2023-03-17T12:03:38.930Z,219.36
2023-03-17T12:04:39.418Z,229.71
2023-03-17T12:05:38.825Z,231.86
2023-03-17T12:06:38.805Z,235.19
2023-03-17T12:07:38.800Z,236.20
2023-03-17T12:08:38.770Z,238.16
2023-03-17T12:09:38.800Z,238.27
2023-03-17T12:10:38.723Z,238.48
2023-03-17T12:11:38.733Z,238.57
2023-03-17T12:12:38.751Z,239.04
2023-03-17T12:13:38.724Z,239.95
2023-03-17T12:14:38.725Z,241.33
2023-03-17T12:15:38.761Z,244.21
2023-03-17T12:16:38.736Z,243.91
2023-03-17T12:17:38.639Z,243.54
2023-03-17T12:18:38.680Z,240.55
2023-03-17T12:19:38.608Z,242.00
2023-03-17T12:20:38.643Z,244.52
2023-03-17T12:21:38.617Z,246.55
2023-03-17T12:22:38.588Z,243.02
2023-03-17T12:23:38.582Z,241.40
2023-03-17T12:24:38.552Z,238.14
2023-03-17T12:25:38.580Z,234.31
2023-03-17T12:26:38.551Z,236.98
2023-03-17T12:27:38.552Z,234.41
2023-03-17T12:28:38.541Z,235.35
2023-03-17T12:29:38.458Z,234.52
2023-03-17T12:30:38.461Z,237.13
2023-03-17T12:31:38.432Z,240.41
2023-03-17T12:32:38.452Z,246.52
2023-03-17T12:33:38.427Z,249.40
2023-03-17T12:34:38.396Z,250.00
2023-03-17T12:35:38.375Z,250.00
2023-03-17T12:36:38.360Z,249.07
2023-03-17T12:37:39.305Z,250.24
2023-03-17T12:38:38.309Z,249.83
2023-03-17T12:39:38.336Z,250.00
2023-03-17T12:40:38.262Z,249.90
2023-03-17T12:41:38.240Z,249.37
2023-03-17T12:42:38.224Z,249.12
2023-03-17T12:43:38.197Z,249.73
2023-03-17T12:44:38.171Z,249.65
2023-03-17T12:45:38.190Z,250.00
2023-03-17T12:46:38.240Z,250.00
2023-03-17T12:47:38.105Z,248.95
2023-03-17T12:48:38.071Z,248.33
2023-03-17T12:49:38.072Z,249.22
2023-03-17T12:50:38.034Z,249.40
2023-03-17T12:51:38.654Z,249.62
2023-03-17T12:52:38.009Z,249.43
2023-03-17T12:53:38.016Z,249.48
2023-03-17T12:54:38.086Z,249.73
2023-03-17T12:55:37.949Z,250.03
2023-03-17T12:56:37.982Z,250.31
2023-03-17T12:57:37.905Z,250.58
2023-03-17T12:58:37.915Z,248.96
2023-03-17T12:59:37.881Z,249.75
2023-03-17T13:00:37.883Z,249.45
2023-03-17T13:01:37.883Z,248.80
2023-03-17T13:02:37.813Z,249.59
2023-03-17T13:03:37.880Z,249.72
2023-03-17T13:04:38.431Z,248.60
2023-03-17T13:05:37.753Z,249.19
2023-03-17T13:06:37.718Z,249.03
2023-03-17T13:07:37.741Z,249.10
2023-03-17T13:08:37.694Z,249.30
2023-03-17T13:09:37.700Z,249.51
2023-03-17T13:10:37.682Z,249.85
2023-03-17T13:11:37.664Z,250.21
2023-03-17T13:12:37.675Z,249.78
2023-03-17T13:13:37.640Z,249.34
2023-03-17T13:14:37.609Z,249.36
2023-03-17T13:15:37.585Z,249.08
2023-03-17T13:16:37.620Z,248.99
2023-03-17T13:17:37.616Z,248.78
2023-03-17T13:18:37.567Z,249.47
2023-03-17T13:19:37.536Z,249.17
2023-03-17T13:20:37.504Z,248.80
2023-03-17T13:21:37.479Z,248.65
2023-03-17T13:22:37.439Z,248.10
2023-03-17T13:23:37.464Z,248.54
2023-03-17T13:24:37.444Z,249.00
2023-03-17T13:25:37.415Z,248.17
2023-03-17T13:26:37.412Z,248.49
2023-03-17T13:27:37.383Z,248.88
2023-03-17T13:28:37.352Z,248.31
2023-03-17T13:29:37.355Z,249.25
2023-03-17T13:30:37.316Z,248.26
2023-03-17T13:31:37.401Z,246.96
2023-03-17T13:32:37.351Z,247.62
2023-03-17T13:33:37.252Z,247.87
2023-03-17T13:34:37.265Z,247.59
2023-03-17T13:35:37.253Z,247.24
2023-03-17T13:36:37.190Z,246.28
2023-03-17T13:37:37.181Z,246.23
2023-03-17T13:38:37.182Z,246.35
2023-03-17T13:39:37.123Z,246.51
2023-03-17T13:40:37.104Z,246.27
2023-03-17T13:41:37.092Z,246.25
2023-03-17T13:42:37.109Z,245.84
2023-03-17T13:43:37.066Z,245.35
2023-03-17T13:44:37.047Z,245.90
2023-03-17T13:45:37.013Z,245.77
2023-03-17T13:46:37.030Z,245.49
2023-03-17T13:47:36.966Z,245.53
2023-03-17T13:48:37.009Z,245.70
2023-03-17T13:49:37.006Z,244.07
2023-03-17T13:50:36.939Z,245.79
2023-03-17T13:51:37.675Z,245.52
2023-03-17T13:52:37.427Z,245.50
2023-03-17T13:53:36.882Z,245.05
2023-03-17T13:54:36.842Z,244.45
2023-03-17T13:55:36.911Z,244.49
2023-03-17T13:56:36.810Z,244.50
2023-03-17T13:57:36.790Z,244.56
2023-03-17T13:58:36.782Z,244.52
2023-03-17T13:59:36.761Z,243.87
2023-03-17T14:00:36.782Z,244.96
2023-03-17T14:01:36.721Z,243.00
2023-03-17T14:02:36.699Z,243.93
2023-03-17T14:03:36.786Z,243.64
2023-03-17T14:04:36.706Z,243.92
2023-03-17T14:05:36.658Z,242.80
2023-03-17T14:06:36.628Z,242.32
2023-03-17T14:07:36.640Z,242.38
2023-03-17T14:08:36.594Z,242.46
2023-03-17T14:09:36.638Z,242.77
2023-03-17T14:10:36.609Z,243.09
2023-03-17T14:11:36.582Z,243.02
2023-03-17T14:12:36.543Z,242.38
2023-03-17T14:13:36.568Z,242.45
2023-03-17T14:14:36.568Z,242.72
2023-03-17T14:15:36.984Z,241.92
2023-03-17T14:16:36.560Z,242.72
2023-03-17T14:17:36.515Z,242.26
2023-03-17T14:18:36.571Z,242.30
2023-03-17T14:19:36.510Z,242.34
2023-03-17T14:20:36.587Z,242.56
2023-03-17T14:21:36.525Z,241.86
2023-03-17T14:22:36.480Z,241.35
2023-03-17T14:23:36.527Z,241.13
2023-03-17T14:24:36.930Z,240.89
2023-03-17T14:25:36.437Z,241.54
2023-03-17T14:26:36.357Z,241.95
2023-03-17T14:27:36.346Z,241.04
2023-03-17T14:28:36.346Z,241.20
2023-03-17T14:29:36.255Z,241.40
2023-03-17T14:30:36.268Z,240.56
2023-03-17T14:31:36.281Z,240.28
2023-03-17T14:32:36.252Z,240.27
2023-03-17T14:33:36.201Z,239.28
2023-03-17T14:34:36.244Z,241.00
2023-03-17T14:35:36.387Z,240.10
2023-03-17T14:36:36.979Z,238.88
2023-03-17T14:37:36.921Z,239.94
2023-03-17T14:38:36.161Z,240.25
2023-03-17T14:39:36.918Z,240.25
2023-03-17T14:40:36.174Z,239.95
2023-03-17T14:41:36.192Z,239.91
2023-03-17T14:42:36.322Z,238.41
2023-03-17T14:43:36.216Z,239.00
2023-03-17T14:44:36.207Z,238.76
2023-03-17T14:45:36.262Z,238.32
2023-03-17T14:46:36.151Z,238.26
2023-03-17T14:47:36.189Z,238.03
2023-03-17T14:48:35.990Z,238.58
2023-03-17T14:49:35.984Z,238.75
2023-03-17T14:50:35.951Z,237.78
2023-03-17T14:51:36.010Z,237.49
2023-03-17T14:52:35.948Z,237.09
2023-03-17T14:53:35.950Z,237.99
2023-03-17T14:54:35.924Z,237.59
2023-03-17T14:55:35.911Z,237.06
2023-03-17T14:56:35.922Z,237.51
2023-03-17T14:57:35.889Z,237.09
2023-03-17T14:58:35.862Z,237.31
2023-03-17T14:59:35.880Z,237.53
2023-03-17T15:00:35.846Z,236.90
2023-03-17T15:01:35.883Z,237.46
2023-03-17T15:02:35.914Z,236.15
2023-03-17T15:03:35.796Z,236.22
2023-03-17T15:04:35.807Z,236.01
2023-03-17T15:05:35.778Z,236.81
2023-03-17T15:06:37.455Z,234.72
2023-03-17T15:07:35.763Z,234.81
2023-03-17T15:08:36.464Z,235.10
2023-03-17T15:09:35.720Z,235.24
2023-03-17T15:10:35.710Z,235.73
2023-03-17T15:11:35.703Z,235.81
2023-03-17T15:12:35.646Z,235.79
2023-03-17T15:13:35.649Z,235.66
2023-03-17T15:14:35.701Z,234.77
2023-03-17T15:15:35.621Z,235.78
2023-03-17T15:16:35.617Z,235.81
2023-03-17T15:17:35.585Z,234.98
2023-03-17T15:18:35.570Z,235.83
2023-03-17T15:19:35.591Z,236.06
2023-03-17T15:20:35.559Z,235.85
2023-03-17T15:21:35.537Z,235.23
2023-03-17T15:22:35.547Z,234.42
2023-03-17T15:23:35.507Z,233.54
2023-03-17T15:24:35.470Z,233.62
2023-03-17T15:25:35.506Z,233.84
2023-03-17T15:26:35.465Z,233.87
2023-03-17T15:27:35.437Z,233.92
2023-03-17T15:28:35.445Z,234.98
2023-03-17T15:29:35.411Z,234.30
2023-03-17T15:30:46.552Z,233.83
2023-03-17T15:31:36.610Z,233.86
2023-03-17T15:32:35.417Z,233.99
2023-03-17T15:33:35.380Z,233.77
2023-03-17T15:34:35.344Z,233.42
2023-03-17T15:35:35.391Z,234.21
2023-03-17T15:36:35.387Z,233.90
2023-03-17T15:37:35.302Z,233.46
2023-03-17T15:38:35.280Z,233.10
2023-03-17T15:39:35.278Z,233.20
2023-03-17T15:40:35.255Z,233.58
2023-03-17T15:41:35.284Z,233.67
2023-03-17T15:42:35.241Z,231.96
2023-03-17T15:43:35.272Z,232.69
2023-03-17T15:44:35.211Z,232.16
2023-03-17T15:45:35.191Z,232.73
2023-03-17T15:46:35.275Z,232.30
2023-03-17T15:47:35.241Z,231.67
2023-03-17T15:48:35.198Z,231.82
2023-03-17T15:49:35.134Z,231.32
2023-03-17T15:50:35.140Z,231.71
2023-03-17T15:51:35.154Z,231.47
2023-03-17T15:52:35.130Z,231.75
2023-03-17T15:53:35.064Z,231.44
2023-03-17T15:54:35.075Z,231.03
2023-03-17T15:55:35.084Z,231.51
2023-03-17T15:56:35.058Z,230.96
2023-03-17T15:57:35.023Z,231.26
2023-03-17T15:58:35.006Z,230.87
2023-03-17T15:59:34.995Z,229.98
2023-03-17T16:00:34.987Z,229.91
2023-03-17T16:01:35.012Z,230.60
2023-03-17T16:02:34.932Z,229.92
2023-03-17T16:03:34.927Z,231.11
2023-03-17T16:04:34.968Z,230.04
2023-03-17T16:05:34.901Z,231.15
2023-03-17T16:06:34.887Z,231.05
2023-03-17T16:07:34.868Z,229.91
2023-03-17T16:08:34.850Z,229.96
2023-03-17T16:09:34.868Z,230.24
2023-03-17T16:10:34.854Z,230.30
2023-03-17T16:11:34.905Z,229.96
2023-03-17T16:12:34.811Z,229.44
2023-03-17T16:13:34.874Z,229.23
2023-03-17T16:14:34.813Z,229.24
2023-03-17T16:15:34.850Z,229.12
2023-03-17T16:16:34.862Z,229.09
2023-03-17T16:17:34.813Z,229.25
2023-03-17T16:18:34.810Z,229.30
2023-03-17T16:19:34.816Z,229.45
2023-03-17T16:20:34.818Z,228.78
2023-03-17T16:21:34.829Z,228.17
2023-03-17T16:22:34.857Z,228.77
2023-03-17T16:23:36.962Z,228.42
2023-03-17T16:24:34.895Z,228.85
2023-03-17T16:25:34.895Z,228.51
2023-03-17T16:26:34.919Z,228.67
2023-03-17T16:27:34.986Z,228.33
2023-03-17T16:28:34.932Z,228.76
2023-03-17T16:29:34.942Z,227.88
2023-03-17T16:30:34.941Z,228.25
2023-03-17T16:31:35.033Z,228.12
2023-03-17T16:32:35.067Z,228.04
2023-03-17T16:33:35.121Z,227.53
2023-03-17T16:34:35.152Z,227.16
2023-03-17T16:35:35.254Z,227.10
2023-03-17T16:36:35.286Z,227.16
2023-03-17T16:37:35.364Z,227.83
2023-03-17T16:38:35.466Z,227.36
2023-03-17T16:39:35.462Z,226.44
2023-03-17T16:40:35.560Z,226.45
2023-03-17T16:41:35.641Z,226.80
2023-03-17T16:42:35.674Z,227.11
2023-03-17T16:43:35.683Z,227.11
2023-03-17T16:44:35.779Z,227.17